sensor_id;sensor_type;location;lat;lon;timestamp;temperature;humidity
20526;DHT22;10421;49.142;9.232;2023-03-16T00:02:26;5.70;95.70
20526;DHT22;10421;49.142;9.232;2023-03-16T00:04:52;5.60;95.70
20526;DHT22;10421;49.142;9.232;2023-03-16T00:07:20;5.70;95.70
20526;DHT22;10421;49.142;9.232;2023-03-16T00:09:47;5.70;95.80
20526;DHT22;10421;49.142;9.232;2023-03-16T00:12:15;5.60;95.70
20526;DHT22;10421;49.142;9.232;2023-03-16T00:14:45;5.60;95.70
20526;DHT22;10421;49.142;9.232;2023-03-16T00:17:13;5.60;95.70
20526;DHT22;10421;49.142;9.232;2023-03-16T00:19:44;5.50;95.80
20526;DHT22;10421;49.142;9.232;2023-03-16T00:22:12;5.50;95.80
20526;DHT22;10421;49.142;9.232;2023-03-16T00:24:40;5.50;95.90
20526;DHT22;10421;49.142;9.232;2023-03-16T00:27:08;5.50;95.90
20526;DHT22;10421;49.142;9.232;2023-03-16T00:29:39;5.50;95.90
20526;DHT22;10421;49.142;9.232;2023-03-16T00:32:13;5.50;95.80
20526;DHT22;10421;49.142;9.232;2023-03-16T00:34:41;5.50;95.80
20526;DHT22;10421;49.142;9.232;2023-03-16T00:37:09;5.50;95.80
20526;DHT22;10421;49.142;9.232;2023-03-16T00:39:38;5.50;95.90
20526;DHT22;10421;49.142;9.232;2023-03-16T00:42:05;5.40;95.90
20526;DHT22;10421;49.142;9.232;2023-03-16T00:44:32;5.40;95.90
20526;DHT22;10421;49.142;9.232;2023-03-16T00:46:59;5.30;95.90
20526;DHT22;10421;49.142;9.232;2023-03-16T00:49:27;5.30;96.00
20526;DHT22;10421;49.142;9.232;2023-03-16T00:51:54;5.30;96.00
20526;DHT22;10421;49.142;9.232;2023-03-16T00:54:20;5.30;96.10
20526;DHT22;10421;49.142;9.232;2023-03-16T00:56:47;5.30;96.00
20526;DHT22;10421;49.142;9.232;2023-03-16T00:59:14;5.30;96.10
20526;DHT22;10421;49.142;9.232;2023-03-16T01:01:41;5.30;96.10
20526;DHT22;10421;49.142;9.232;2023-03-16T01:04:08;5.30;96.10
20526;DHT22;10421;49.142;9.232;2023-03-16T01:06:36;5.20;96.00
20526;DHT22;10421;49.142;9.232;2023-03-16T01:09:03;5.20;96.00
20526;DHT22;10421;49.142;9.232;2023-03-16T01:11:31;5.20;96.00
20526;DHT22;10421;49.142;9.232;2023-03-16T01:13:59;5.20;96.10
20526;DHT22;10421;49.142;9.232;2023-03-16T01:16:26;5.20;96.10
20526;DHT22;10421;49.142;9.232;2023-03-16T01:18:53;5.20;96.10
20526;DHT22;10421;49.142;9.232;2023-03-16T01:21:20;5.20;95.90
20526;DHT22;10421;49.142;9.232;2023-03-16T01:23:49;5.10;95.90
20526;DHT22;10421;49.142;9.232;2023-03-16T01:26:18;5.10;96.00
20526;DHT22;10421;49.142;9.232;2023-03-16T01:28:45;5.00;96.00
20526;DHT22;10421;49.142;9.232;2023-03-16T01:31:14;5.00;96.10
20526;DHT22;10421;49.142;9.232;2023-03-16T01:33:41;5.00;96.10
20526;DHT22;10421;49.142;9.232;2023-03-16T01:36:10;5.00;96.10
20526;DHT22;10421;49.142;9.232;2023-03-16T01:38:37;4.90;96.10
20526;DHT22;10421;49.142;9.232;2023-03-16T01:41:06;5.00;96.20
20526;DHT22;10421;49.142;9.232;2023-03-16T01:43:35;4.90;96.20
20526;DHT22;10421;49.142;9.232;2023-03-16T01:46:22;4.90;96.20
20526;DHT22;10421;49.142;9.232;2023-03-16T01:48:57;4.90;96.20
20526;DHT22;10421;49.142;9.232;2023-03-16T01:51:28;4.90;96.20
20526;DHT22;10421;49.142;9.232;2023-03-16T01:53:58;4.90;96.20
20526;DHT22;10421;49.142;9.232;2023-03-16T01:56:32;4.90;96.20
20526;DHT22;10421;49.142;9.232;2023-03-16T01:59:02;4.90;96.20
20526;DHT22;10421;49.142;9.232;2023-03-16T02:01:31;5.00;96.30
20526;DHT22;10421;49.142;9.232;2023-03-16T02:04:07;5.00;96.20
20526;DHT22;10421;49.142;9.232;2023-03-16T02:06:38;5.00;96.20
20526;DHT22;10421;49.142;9.232;2023-03-16T02:09:05;5.00;96.10
20526;DHT22;10421;49.142;9.232;2023-03-16T02:11:34;5.00;96.10
20526;DHT22;10421;49.142;9.232;2023-03-16T02:14:05;5.00;96.10
20526;DHT22;10421;49.142;9.232;2023-03-16T02:16:33;5.00;96.10
20526;DHT22;10421;49.142;9.232;2023-03-16T02:19:00;5.00;96.00
20526;DHT22;10421;49.142;9.232;2023-03-16T02:21:30;5.00;96.00
20526;DHT22;10421;49.142;9.232;2023-03-16T02:24:00;5.00;96.00
20526;DHT22;10421;49.142;9.232;2023-03-16T02:26:36;4.90;96.00
20526;DHT22;10421;49.142;9.232;2023-03-16T02:29:17;4.90;96.00
20526;DHT22;10421;49.142;9.232;2023-03-16T02:31:52;4.90;96.00
20526;DHT22;10421;49.142;9.232;2023-03-16T02:34:19;4.90;95.90
20526;DHT22;10421;49.142;9.232;2023-03-16T02:36:47;4.90;95.90
20526;DHT22;10421;49.142;9.232;2023-03-16T02:39:16;4.90;95.90
20526;DHT22;10421;49.142;9.232;2023-03-16T02:41:43;4.90;95.80
20526;DHT22;10421;49.142;9.232;2023-03-16T02:44:13;4.80;95.80
20526;DHT22;10421;49.142;9.232;2023-03-16T02:46:41;4.80;95.80
20526;DHT22;10421;49.142;9.232;2023-03-16T02:49:14;4.80;95.80
20526;DHT22;10421;49.142;9.232;2023-03-16T02:51:43;4.70;95.80
20526;DHT22;10421;49.142;9.232;2023-03-16T02:54:10;4.70;95.90
20526;DHT22;10421;49.142;9.232;2023-03-16T02:56:37;4.70;96.00
20526;DHT22;10421;49.142;9.232;2023-03-16T02:59:04;4.70;96.00
20526;DHT22;10421;49.142;9.232;2023-03-16T03:01:31;4.70;96.00
20526;DHT22;10421;49.142;9.232;2023-03-16T03:03:59;4.70;96.10
20526;DHT22;10421;49.142;9.232;2023-03-16T03:06:27;4.70;96.00
20526;DHT22;10421;49.142;9.232;2023-03-16T03:08:54;4.60;95.90
20526;DHT22;10421;49.142;9.232;2023-03-16T03:11:21;4.60;95.90
20526;DHT22;10421;49.142;9.232;2023-03-16T03:13:48;4.60;96.00
20526;DHT22;10421;49.142;9.232;2023-03-16T03:16:14;4.50;96.10
20526;DHT22;10421;49.142;9.232;2023-03-16T03:18:41;4.50;96.10
20526;DHT22;10421;49.142;9.232;2023-03-16T03:21:08;4.40;96.20
20526;DHT22;10421;49.142;9.232;2023-03-16T03:23:36;4.40;96.40
20526;DHT22;10421;49.142;9.232;2023-03-16T03:26:03;4.40;96.60
20526;DHT22;10421;49.142;9.232;2023-03-16T03:28:30;4.40;96.70
20526;DHT22;10421;49.142;9.232;2023-03-16T03:31:01;4.50;96.90
20526;DHT22;10421;49.142;9.232;2023-03-16T03:33:28;4.50;96.90
20526;DHT22;10421;49.142;9.232;2023-03-16T03:35:55;4.50;96.90
20526;DHT22;10421;49.142;9.232;2023-03-16T03:38:23;4.60;96.90
20526;DHT22;10421;49.142;9.232;2023-03-16T03:40:52;4.50;96.90
20526;DHT22;10421;49.142;9.232;2023-03-16T03:43:20;4.50;96.80
20526;DHT22;10421;49.142;9.232;2023-03-16T03:45:47;4.50;96.90
20526;DHT22;10421;49.142;9.232;2023-03-16T03:48:13;4.40;96.80
20526;DHT22;10421;49.142;9.232;2023-03-16T03:50:40;4.40;96.90
20526;DHT22;10421;49.142;9.232;2023-03-16T03:53:07;4.40;97.00
20526;DHT22;10421;49.142;9.232;2023-03-16T03:55:33;4.30;97.10
20526;DHT22;10421;49.142;9.232;2023-03-16T03:58:01;4.20;97.20
20526;DHT22;10421;49.142;9.232;2023-03-16T04:00:28;4.20;97.40
20526;DHT22;10421;49.142;9.232;2023-03-16T04:02:55;4.10;97.50
20526;DHT22;10421;49.142;9.232;2023-03-16T04:05:22;4.00;97.60
20526;DHT22;10421;49.142;9.232;2023-03-16T04:07:51;4.10;97.80
20526;DHT22;10421;49.142;9.232;2023-03-16T04:10:22;4.00;97.90
20526;DHT22;10421;49.142;9.232;2023-03-16T04:12:48;4.00;98.00
20526;DHT22;10421;49.142;9.232;2023-03-16T04:15:17;4.10;98.00
20526;DHT22;10421;49.142;9.232;2023-03-16T04:17:43;4.10;98.00
20526;DHT22;10421;49.142;9.232;2023-03-16T04:20:11;4.10;98.00
20526;DHT22;10421;49.142;9.232;2023-03-16T04:22:39;4.10;98.00
20526;DHT22;10421;49.142;9.232;2023-03-16T04:25:07;4.00;97.90
20526;DHT22;10421;49.142;9.232;2023-03-16T04:27:34;4.00;98.00
20526;DHT22;10421;49.142;9.232;2023-03-16T04:30:02;4.10;98.10
20526;DHT22;10421;49.142;9.232;2023-03-16T04:32:31;4.00;98.10
20526;DHT22;10421;49.142;9.232;2023-03-16T04:34:58;4.00;98.20
20526;DHT22;10421;49.142;9.232;2023-03-16T04:37:26;4.00;98.20
20526;DHT22;10421;49.142;9.232;2023-03-16T04:39:52;4.10;98.30
20526;DHT22;10421;49.142;9.232;2023-03-16T04:42:19;4.10;98.30
20526;DHT22;10421;49.142;9.232;2023-03-16T04:44:46;4.10;98.20
20526;DHT22;10421;49.142;9.232;2023-03-16T04:47:14;4.10;98.20
20526;DHT22;10421;49.142;9.232;2023-03-16T04:49:43;4.10;98.20
20526;DHT22;10421;49.142;9.232;2023-03-16T04:52:10;4.10;98.30
20526;DHT22;10421;49.142;9.232;2023-03-16T04:54:37;4.10;98.40
20526;DHT22;10421;49.142;9.232;2023-03-16T04:57:03;4.10;98.40
20526;DHT22;10421;49.142;9.232;2023-03-16T04:59:30;4.10;98.40
20526;DHT22;10421;49.142;9.232;2023-03-16T05:01:57;4.10;98.40
20526;DHT22;10421;49.142;9.232;2023-03-16T05:04:24;4.10;98.30
20526;DHT22;10421;49.142;9.232;2023-03-16T05:06:52;4.10;98.10
20526;DHT22;10421;49.142;9.232;2023-03-16T05:09:18;4.00;98.40
20526;DHT22;10421;49.142;9.232;2023-03-16T05:11:45;4.00;98.20
20526;DHT22;10421;49.142;9.232;2023-03-16T05:14:12;4.00;98.30
20526;DHT22;10421;49.142;9.232;2023-03-16T05:16:38;4.00;98.40
20526;DHT22;10421;49.142;9.232;2023-03-16T05:19:06;4.00;98.50
20526;DHT22;10421;49.142;9.232;2023-03-16T05:21:33;4.00;98.50
20526;DHT22;10421;49.142;9.232;2023-03-16T05:24:03;4.00;98.40
20526;DHT22;10421;49.142;9.232;2023-03-16T05:26:30;4.00;98.50
20526;DHT22;10421;49.142;9.232;2023-03-16T05:28:58;4.00;98.60
20526;DHT22;10421;49.142;9.232;2023-03-16T05:31:25;4.00;98.60
20526;DHT22;10421;49.142;9.232;2023-03-16T05:33:51;4.00;98.60
20526;DHT22;10421;49.142;9.232;2023-03-16T05:36:19;4.00;98.60
20526;DHT22;10421;49.142;9.232;2023-03-16T05:38:45;4.00;98.60
20526;DHT22;10421;49.142;9.232;2023-03-16T05:41:14;4.00;98.60
20526;DHT22;10421;49.142;9.232;2023-03-16T05:43:42;4.00;98.50
20526;DHT22;10421;49.142;9.232;2023-03-16T05:46:09;4.00;98.40
20526;DHT22;10421;49.142;9.232;2023-03-16T05:48:36;4.00;98.20
20526;DHT22;10421;49.142;9.232;2023-03-16T05:51:03;4.00;98.20
20526;DHT22;10421;49.142;9.232;2023-03-16T05:53:31;4.00;98.20
20526;DHT22;10421;49.142;9.232;2023-03-16T05:55:57;4.00;98.10
20526;DHT22;10421;49.142;9.232;2023-03-16T05:58:27;4.00;98.10
20526;DHT22;10421;49.142;9.232;2023-03-16T06:00:53;4.00;98.10
20526;DHT22;10421;49.142;9.232;2023-03-16T06:03:21;4.00;98.10
20526;DHT22;10421;49.142;9.232;2023-03-16T06:05:48;4.10;98.10
20526;DHT22;10421;49.142;9.232;2023-03-16T06:08:15;4.10;98.20
20526;DHT22;10421;49.142;9.232;2023-03-16T06:10:41;4.10;98.20
20526;DHT22;10421;49.142;9.232;2023-03-16T06:13:08;4.20;98.30
20526;DHT22;10421;49.142;9.232;2023-03-16T06:15:37;4.30;98.30
20526;DHT22;10421;49.142;9.232;2023-03-16T06:18:04;4.30;98.20
20526;DHT22;10421;49.142;9.232;2023-03-16T06:20:30;4.40;98.20
20526;DHT22;10421;49.142;9.232;2023-03-16T06:22:57;4.50;98.10
20526;DHT22;10421;49.142;9.232;2023-03-16T06:25:24;4.50;98.00
20526;DHT22;10421;49.142;9.232;2023-03-16T06:27:51;4.50;97.90
20526;DHT22;10421;49.142;9.232;2023-03-16T06:30:17;4.50;97.90
20526;DHT22;10421;49.142;9.232;2023-03-16T06:32:46;4.50;97.90
20526;DHT22;10421;49.142;9.232;2023-03-16T06:35:13;4.60;98.00
20526;DHT22;10421;49.142;9.232;2023-03-16T06:37:39;4.70;98.10
20526;DHT22;10421;49.142;9.232;2023-03-16T06:40:07;4.80;98.80
20526;DHT22;10421;49.142;9.232;2023-03-16T06:42:34;4.90;99.50
20526;DHT22;10421;49.142;9.232;2023-03-16T06:45:01;5.10;99.00
20526;DHT22;10421;49.142;9.232;2023-03-16T06:47:27;5.40;98.10
20526;DHT22;10421;49.142;9.232;2023-03-16T06:49:56;5.70;97.80
20526;DHT22;10421;49.142;9.232;2023-03-16T06:52:24;5.90;97.70
20526;DHT22;10421;49.142;9.232;2023-03-16T06:54:51;6.10;97.80
20526;DHT22;10421;49.142;9.232;2023-03-16T06:57:18;6.20;97.70
20526;DHT22;10421;49.142;9.232;2023-03-16T06:59:44;6.30;97.00
20526;DHT22;10421;49.142;9.232;2023-03-16T07:02:12;6.30;96.70
20526;DHT22;10421;49.142;9.232;2023-03-16T07:04:40;6.40;96.20
20526;DHT22;10421;49.142;9.232;2023-03-16T07:07:09;6.50;95.80
20526;DHT22;10421;49.142;9.232;2023-03-16T07:09:36;6.50;95.60
20526;DHT22;10421;49.142;9.232;2023-03-16T07:12:05;6.50;95.50
20526;DHT22;10421;49.142;9.232;2023-03-16T07:14:31;6.50;95.40
20526;DHT22;10421;49.142;9.232;2023-03-16T07:16:58;6.60;95.50
20526;DHT22;10421;49.142;9.232;2023-03-16T07:19:26;6.60;95.40
20526;DHT22;10421;49.142;9.232;2023-03-16T07:21:52;6.70;95.30
20526;DHT22;10421;49.142;9.232;2023-03-16T07:24:20;6.70;95.20
20526;DHT22;10421;49.142;9.232;2023-03-16T07:26:47;6.70;95.50
20526;DHT22;10421;49.142;9.232;2023-03-16T07:29:14;6.80;95.20
20526;DHT22;10421;49.142;9.232;2023-03-16T07:31:41;6.80;95.10
20526;DHT22;10421;49.142;9.232;2023-03-16T07:34:08;6.90;95.10
20526;DHT22;10421;49.142;9.232;2023-03-16T07:36:36;6.90;95.00
20526;DHT22;10421;49.142;9.232;2023-03-16T07:39:03;7.00;95.00
20526;DHT22;10421;49.142;9.232;2023-03-16T07:41:32;7.10;94.90
20526;DHT22;10421;49.142;9.232;2023-03-16T07:43:58;7.10;94.70
20526;DHT22;10421;49.142;9.232;2023-03-16T07:46:25;7.20;94.70
20526;DHT22;10421;49.142;9.232;2023-03-16T07:48:52;7.20;94.60
20526;DHT22;10421;49.142;9.232;2023-03-16T07:51:19;7.20;94.50
20526;DHT22;10421;49.142;9.232;2023-03-16T07:53:45;7.30;94.60
20526;DHT22;10421;49.142;9.232;2023-03-16T07:56:12;7.30;94.70
20526;DHT22;10421;49.142;9.232;2023-03-16T07:58:40;7.40;94.60
20526;DHT22;10421;49.142;9.232;2023-03-16T08:01:07;7.40;94.50
20526;DHT22;10421;49.142;9.232;2023-03-16T08:03:35;7.50;94.50
20526;DHT22;10421;49.142;9.232;2023-03-16T08:06:02;7.60;94.40
20526;DHT22;10421;49.142;9.232;2023-03-16T08:08:29;7.70;94.30
20526;DHT22;10421;49.142;9.232;2023-03-16T08:10:56;7.80;94.10
20526;DHT22;10421;49.142;9.232;2023-03-16T08:13:23;7.90;94.00
20526;DHT22;10421;49.142;9.232;2023-03-16T08:15:52;8.00;93.80
20526;DHT22;10421;49.142;9.232;2023-03-16T08:18:24;8.20;93.60
20526;DHT22;10421;49.142;9.232;2023-03-16T08:20:51;8.20;93.20
20526;DHT22;10421;49.142;9.232;2023-03-16T08:23:18;8.30;93.10
20526;DHT22;10421;49.142;9.232;2023-03-16T08:25:45;8.40;93.20
20526;DHT22;10421;49.142;9.232;2023-03-16T08:28:13;8.50;93.00
20526;DHT22;10421;49.142;9.232;2023-03-16T08:30:45;8.60;93.00
20526;DHT22;10421;49.142;9.232;2023-03-16T08:33:14;8.70;92.90
20526;DHT22;10421;49.142;9.232;2023-03-16T08:35:42;8.80;92.70
20526;DHT22;10421;49.142;9.232;2023-03-16T08:38:10;8.80;92.20
20526;DHT22;10421;49.142;9.232;2023-03-16T08:40:37;8.90;92.20
20526;DHT22;10421;49.142;9.232;2023-03-16T08:43:06;8.90;92.20
20526;DHT22;10421;49.142;9.232;2023-03-16T08:45:33;8.90;92.10
20526;DHT22;10421;49.142;9.232;2023-03-16T08:48:00;9.00;91.90
20526;DHT22;10421;49.142;9.232;2023-03-16T08:50:28;9.10;91.90
20526;DHT22;10421;49.142;9.232;2023-03-16T08:52:55;9.30;91.90
20526;DHT22;10421;49.142;9.232;2023-03-16T08:55:21;9.50;91.70
20526;DHT22;10421;49.142;9.232;2023-03-16T08:57:48;9.70;91.40
20526;DHT22;10421;49.142;9.232;2023-03-16T09:00:16;9.90;91.20
20526;DHT22;10421;49.142;9.232;2023-03-16T09:02:44;10.10;90.40
20526;DHT22;10421;49.142;9.232;2023-03-16T09:05:12;10.40;90.20
20526;DHT22;10421;49.142;9.232;2023-03-16T09:07:41;10.70;89.60
20526;DHT22;10421;49.142;9.232;2023-03-16T09:10:09;10.90;89.00
20526;DHT22;10421;49.142;9.232;2023-03-16T09:12:39;11.20;88.10
20526;DHT22;10421;49.142;9.232;2023-03-16T09:15:08;11.40;87.50
20526;DHT22;10421;49.142;9.232;2023-03-16T09:17:37;11.60;86.50
20526;DHT22;10421;49.142;9.232;2023-03-16T09:20:05;11.90;85.10
20526;DHT22;10421;49.142;9.232;2023-03-16T09:22:34;12.10;84.20
20526;DHT22;10421;49.142;9.232;2023-03-16T09:25:03;12.30;83.90
20526;DHT22;10421;49.142;9.232;2023-03-16T09:27:31;12.40;83.20
20526;DHT22;10421;49.142;9.232;2023-03-16T09:29:58;12.60;82.30
20526;DHT22;10421;49.142;9.232;2023-03-16T09:32:26;12.80;81.40
20526;DHT22;10421;49.142;9.232;2023-03-16T09:34:54;12.90;80.60
20526;DHT22;10421;49.142;9.232;2023-03-16T09:37:21;13.10;79.90
20526;DHT22;10421;49.142;9.232;2023-03-16T09:39:48;13.20;79.30
20526;DHT22;10421;49.142;9.232;2023-03-16T09:42:20;13.30;78.60
20526;DHT22;10421;49.142;9.232;2023-03-16T09:44:58;13.40;77.70
20526;DHT22;10421;49.142;9.232;2023-03-16T09:47:29;13.50;76.70
20526;DHT22;10421;49.142;9.232;2023-03-16T09:49:58;13.60;75.40
20526;DHT22;10421;49.142;9.232;2023-03-16T09:52:34;13.60;75.50
20526;DHT22;10421;49.142;9.232;2023-03-16T09:55:06;13.80;74.70
20526;DHT22;10421;49.142;9.232;2023-03-16T09:57:40;13.80;74.70
20526;DHT22;10421;49.142;9.232;2023-03-16T10:00:15;13.90;74.20
20526;DHT22;10421;49.142;9.232;2023-03-16T10:03:01;14.10;74.70
20526;DHT22;10421;49.142;9.232;2023-03-16T10:05:31;14.30;74.00
20526;DHT22;10421;49.142;9.232;2023-03-16T10:08:06;14.20;71.50
20526;DHT22;10421;49.142;9.232;2023-03-16T10:10:42;14.20;71.70
20526;DHT22;10421;49.142;9.232;2023-03-16T10:13:19;14.20;72.50
20526;DHT22;10421;49.142;9.232;2023-03-16T10:15:52;14.30;72.70
20526;DHT22;10421;49.142;9.232;2023-03-16T10:18:22;14.40;68.20
20526;DHT22;10421;49.142;9.232;2023-03-16T10:20:51;14.30;68.30
20526;DHT22;10421;49.142;9.232;2023-03-16T10:23:22;14.20;68.60
20526;DHT22;10421;49.142;9.232;2023-03-16T10:25:50;14.20;67.70
20526;DHT22;10421;49.142;9.232;2023-03-16T10:28:20;14.20;67.80
20526;DHT22;10421;49.142;9.232;2023-03-16T10:30:48;13.90;68.90
20526;DHT22;10421;49.142;9.232;2023-03-16T10:33:20;13.70;67.20
20526;DHT22;10421;49.142;9.232;2023-03-16T10:35:51;13.60;69.10
20526;DHT22;10421;49.142;9.232;2023-03-16T10:38:27;13.80;70.10
20526;DHT22;10421;49.142;9.232;2023-03-16T10:40:55;14.00;67.90
20526;DHT22;10421;49.142;9.232;2023-03-16T10:43:25;14.10;67.40
20526;DHT22;10421;49.142;9.232;2023-03-16T10:45:57;14.20;69.20
20526;DHT22;10421;49.142;9.232;2023-03-16T10:48:25;14.40;69.50
20526;DHT22;10421;49.142;9.232;2023-03-16T10:50:54;14.60;69.40
20526;DHT22;10421;49.142;9.232;2023-03-16T10:53:25;14.70;69.90
20526;DHT22;10421;49.142;9.232;2023-03-16T10:55:56;14.90;68.50
20526;DHT22;10421;49.142;9.232;2023-03-16T10:58:30;15.10;67.80
20526;DHT22;10421;49.142;9.232;2023-03-16T11:00:58;14.90;65.90
20526;DHT22;10421;49.142;9.232;2023-03-16T11:03:28;14.90;65.70
20526;DHT22;10421;49.142;9.232;2023-03-16T11:05:57;14.90;64.80
20526;DHT22;10421;49.142;9.232;2023-03-16T11:08:27;14.70;63.00
20526;DHT22;10421;49.142;9.232;2023-03-16T11:10:58;14.70;64.00
20526;DHT22;10421;49.142;9.232;2023-03-16T11:13:33;14.50;65.10
20526;DHT22;10421;49.142;9.232;2023-03-16T11:16:04;14.60;65.90
20526;DHT22;10421;49.142;9.232;2023-03-16T11:18:35;14.90;65.10
20526;DHT22;10421;49.142;9.232;2023-03-16T11:21:07;15.10;63.80
20526;DHT22;10421;49.142;9.232;2023-03-16T11:23:41;15.50;62.40
20526;DHT22;10421;49.142;9.232;2023-03-16T11:26:18;15.70;61.00
20526;DHT22;10421;49.142;9.232;2023-03-16T11:28:52;15.80;60.40
20526;DHT22;10421;49.142;9.232;2023-03-16T11:31:32;15.80;60.30
20526;DHT22;10421;49.142;9.232;2023-03-16T11:34:13;15.80;60.60
20526;DHT22;10421;49.142;9.232;2023-03-16T11:36:46;15.90;60.10
20526;DHT22;10421;49.142;9.232;2023-03-16T11:42:27;15.90;60.40
20526;DHT22;10421;49.142;9.232;2023-03-16T11:45:04;15.80;60.00
20526;DHT22;10421;49.142;9.232;2023-03-16T11:48:05;15.70;57.60
20526;DHT22;10421;49.142;9.232;2023-03-16T11:50:41;15.60;57.50
20526;DHT22;10421;49.142;9.232;2023-03-16T11:53:17;15.70;56.80
20526;DHT22;10421;49.142;9.232;2023-03-16T11:55:56;15.80;55.60
20526;DHT22;10421;49.142;9.232;2023-03-16T11:58:39;15.90;55.30
20526;DHT22;10421;49.142;9.232;2023-03-16T12:01:16;16.10;56.00
20526;DHT22;10421;49.142;9.232;2023-03-16T12:04:01;16.30;55.80
20526;DHT22;10421;49.142;9.232;2023-03-16T12:06:39;16.10;52.70
20526;DHT22;10421;49.142;9.232;2023-03-16T12:12:20;16.20;53.80
20526;DHT22;10421;49.142;9.232;2023-03-16T12:14:52;16.20;53.20
20526;DHT22;10421;49.142;9.232;2023-03-16T12:17:26;16.30;52.80
20526;DHT22;10421;49.142;9.232;2023-03-16T12:19:57;16.20;53.30
20526;DHT22;10421;49.142;9.232;2023-03-16T12:22:28;16.00;52.60
20526;DHT22;10421;49.142;9.232;2023-03-16T12:24:57;15.90;50.00
20526;DHT22;10421;49.142;9.232;2023-03-16T12:27:30;15.70;51.30
20526;DHT22;10421;49.142;9.232;2023-03-16T12:30:04;15.60;51.80
20526;DHT22;10421;49.142;9.232;2023-03-16T12:32:44;15.60;51.90
20526;DHT22;10421;49.142;9.232;2023-03-16T12:35:26;15.70;51.90
20526;DHT22;10421;49.142;9.232;2023-03-16T12:38:24;15.70;52.10
20526;DHT22;10421;49.142;9.232;2023-03-16T12:41:04;15.80;50.30
20526;DHT22;10421;49.142;9.232;2023-03-16T12:43:43;15.70;49.00
20526;DHT22;10421;49.142;9.232;2023-03-16T12:46:16;15.80;48.90
20526;DHT22;10421;49.142;9.232;2023-03-16T12:48:52;15.80;47.90
20526;DHT22;10421;49.142;9.232;2023-03-16T12:51:31;15.70;48.10
20526;DHT22;10421;49.142;9.232;2023-03-16T12:53:58;15.60;48.10
20526;DHT22;10421;49.142;9.232;2023-03-16T12:56:27;15.60;46.40
20526;DHT22;10421;49.142;9.232;2023-03-16T12:58:57;15.60;48.00
20526;DHT22;10421;49.142;9.232;2023-03-16T13:01:26;15.60;47.70
20526;DHT22;10421;49.142;9.232;2023-03-16T13:04:00;15.60;47.00
20526;DHT22;10421;49.142;9.232;2023-03-16T13:06:32;15.60;47.00
20526;DHT22;10421;49.142;9.232;2023-03-16T13:09:00;15.50;48.30
20526;DHT22;10421;49.142;9.232;2023-03-16T13:11:39;15.40;48.90
20526;DHT22;10421;49.142;9.232;2023-03-16T13:14:08;15.30;47.10
20526;DHT22;10421;49.142;9.232;2023-03-16T13:16:37;15.30;47.50
20526;DHT22;10421;49.142;9.232;2023-03-16T13:19:23;15.30;46.90
20526;DHT22;10421;49.142;9.232;2023-03-16T13:22:00;15.40;46.70
20526;DHT22;10421;49.142;9.232;2023-03-16T13:24:36;15.60;46.20
20526;DHT22;10421;49.142;9.232;2023-03-16T13:27:10;15.40;44.10
20526;DHT22;10421;49.142;9.232;2023-03-16T13:29:51;15.30;44.00
20526;DHT22;10421;49.142;9.232;2023-03-16T13:32:21;15.30;44.30
20526;DHT22;10421;49.142;9.232;2023-03-16T13:34:52;15.50;45.20
20526;DHT22;10421;49.142;9.232;2023-03-16T13:37:31;15.70;45.10
20526;DHT22;10421;49.142;9.232;2023-03-16T13:40:00;15.90;44.90
20526;DHT22;10421;49.142;9.232;2023-03-16T13:42:30;16.00;45.00
20526;DHT22;10421;49.142;9.232;2023-03-16T13:44:58;16.10;44.50
20526;DHT22;10421;49.142;9.232;2023-03-16T13:47:28;16.20;43.20
20526;DHT22;10421;49.142;9.232;2023-03-16T13:49:58;16.10;43.80
20526;DHT22;10421;49.142;9.232;2023-03-16T13:52:27;16.00;43.40
20526;DHT22;10421;49.142;9.232;2023-03-16T13:54:55;15.80;43.60
20526;DHT22;10421;49.142;9.232;2023-03-16T13:57:25;15.60;41.30
20526;DHT22;10421;49.142;9.232;2023-03-16T14:00:01;15.50;42.00
20526;DHT22;10421;49.142;9.232;2023-03-16T14:02:30;15.30;42.40
20526;DHT22;10421;49.142;9.232;2023-03-16T14:05:08;15.30;43.50
20526;DHT22;10421;49.142;9.232;2023-03-16T14:07:36;15.20;44.50
20526;DHT22;10421;49.142;9.232;2023-03-16T14:10:04;15.20;45.70
20526;DHT22;10421;49.142;9.232;2023-03-16T14:12:31;15.20;45.90
20526;DHT22;10421;49.142;9.232;2023-03-16T14:14:58;15.20;46.20
20526;DHT22;10421;49.142;9.232;2023-03-16T14:17:27;15.20;46.10
20526;DHT22;10421;49.142;9.232;2023-03-16T14:19:58;15.30;46.10
20526;DHT22;10421;49.142;9.232;2023-03-16T14:22:30;15.30;46.20
20526;DHT22;10421;49.142;9.232;2023-03-16T14:25:00;15.20;46.10
20526;DHT22;10421;49.142;9.232;2023-03-16T14:27:31;15.20;46.80
20526;DHT22;10421;49.142;9.232;2023-03-16T14:30:15;15.30;46.90
20526;DHT22;10421;49.142;9.232;2023-03-16T14:32:53;15.40;46.90
20526;DHT22;10421;49.142;9.232;2023-03-16T14:35:25;15.40;46.50
20526;DHT22;10421;49.142;9.232;2023-03-16T14:37:52;15.30;46.10
20526;DHT22;10421;49.142;9.232;2023-03-16T14:40:24;15.30;46.60
20526;DHT22;10421;49.142;9.232;2023-03-16T14:42:52;15.40;47.10
20526;DHT22;10421;49.142;9.232;2023-03-16T14:45:20;15.40;47.30
20526;DHT22;10421;49.142;9.232;2023-03-16T14:47:48;15.40;47.00
20526;DHT22;10421;49.142;9.232;2023-03-16T14:50:24;15.40;45.90
20526;DHT22;10421;49.142;9.232;2023-03-16T14:52:53;15.30;46.70
20526;DHT22;10421;49.142;9.232;2023-03-16T14:55:20;15.20;47.90
20526;DHT22;10421;49.142;9.232;2023-03-16T14:57:49;15.20;48.50
20526;DHT22;10421;49.142;9.232;2023-03-16T15:00:18;15.00;48.30
20526;DHT22;10421;49.142;9.232;2023-03-16T15:02:53;15.00;48.80
20526;DHT22;10421;49.142;9.232;2023-03-16T15:05:29;15.00;49.60
20526;DHT22;10421;49.142;9.232;2023-03-16T15:07:57;14.90;49.60
20526;DHT22;10421;49.142;9.232;2023-03-16T15:10:25;14.90;49.20
20526;DHT22;10421;49.142;9.232;2023-03-16T15:12:53;14.90;49.40
20526;DHT22;10421;49.142;9.232;2023-03-16T15:15:29;15.00;49.80
20526;DHT22;10421;49.142;9.232;2023-03-16T15:17:56;15.00;49.00
20526;DHT22;10421;49.142;9.232;2023-03-16T15:20:27;14.90;48.20
20526;DHT22;10421;49.142;9.232;2023-03-16T15:22:56;14.80;48.30
20526;DHT22;10421;49.142;9.232;2023-03-16T15:25:27;14.80;48.90
20526;DHT22;10421;49.142;9.232;2023-03-16T15:28:01;15.00;49.60
20526;DHT22;10421;49.142;9.232;2023-03-16T15:30:28;14.90;49.40
20526;DHT22;10421;49.142;9.232;2023-03-16T15:32:55;15.00;49.90
20526;DHT22;10421;49.142;9.232;2023-03-16T15:35:23;15.10;49.00
20526;DHT22;10421;49.142;9.232;2023-03-16T15:37:50;15.10;48.60
20526;DHT22;10421;49.142;9.232;2023-03-16T15:40:20;15.20;48.70
20526;DHT22;10421;49.142;9.232;2023-03-16T15:42:48;15.10;48.70
20526;DHT22;10421;49.142;9.232;2023-03-16T15:45:17;15.00;49.10
20526;DHT22;10421;49.142;9.232;2023-03-16T15:47:46;15.00;49.30
20526;DHT22;10421;49.142;9.232;2023-03-16T15:50:13;15.00;49.70
20526;DHT22;10421;49.142;9.232;2023-03-16T15:52:43;14.90;50.00
20526;DHT22;10421;49.142;9.232;2023-03-16T15:55:17;14.90;49.50
20526;DHT22;10421;49.142;9.232;2023-03-16T15:57:45;14.90;49.40
20526;DHT22;10421;49.142;9.232;2023-03-16T16:00:25;14.90;49.40
20526;DHT22;10421;49.142;9.232;2023-03-16T16:02:53;14.80;49.80